KRSW/RSW METAR and TAF weather

Enter ICAO airport designator
Station Type Date Time Source
KRSW METAR 2023/06/06 04:53 UTC NOAA

KRSW 060453Z 05007KT 10SM CLR 23/19 A2992 RMK AO2 SLP131 T02280189 403220211


Station Type Date Time Source
KRSW Decoded METAR 2023/06/06 04:53 UTC NOAA

FORT MYERS SW FL INTERNATIONAL AIRPORT , FL, United States (KRSW) 26-32N 081-46W 9M
Jun 06, 2023 - 12:53 AM EDT / 2023.06.06 0453 UTC
Wind: from the NE (050 degrees) at 8 MPH (7 KT):0
Visibility: 10 mile(s):0
Sky conditions: clear
Temperature: 73.0 F (22.8 C)
Dew Point: 66.0 F (18.9 C)
Relative Humidity: 78%
Pressure (altimeter): 29.92 in. Hg (1013 hPa)
ob: KRSW 060453Z 05007KT 10SM CLR 23/19 A2992 RMK AO2 SLP131 T02280189 403220211
cycle: 5

Station Type Date Time Source
KRSW TAF 2023/06/05 18:22 UTC NOAA

TAF KRSW 051720Z 0518/0618 05006KT P6SM FEW025 SCT250
FM051900 04010KT P6SM BKN050
TEMPO 0521/0524 VRB15G25KT 6SM -TSRA BKN030CB
FM060000 08009KT P6SM SCT100
FM060500 06004KT P6SM FEW100
FM061400 13007KT P6SM FEW025 SCT100

Example: see airport list